Powers Lake, Wisconsin
Current Conditions -  °F | °C
As of 2:35 PM on Saturday 25 Oct 2014 (Local Time) from KBUU Reporting Station
Clear Clear  
Wind Chill: 67°   Ceiling: Unl
Heat Index: 67°   Visibility: 10mi
Dew Point: 30°   Wind: 20mph
Humidity: 25%   Direction: 300°WNW
Pressure: 29.91"   Gusts: 29mph
Location:  42.54°N, 88.3°W
Report Text: KBUU 251935Z AUTO 30017G25KT 10SM CLR 20/M01 A2991 RMK AO2 T01971011
Loading
Personal Weather Stations






























Interactive Weather Map
Tropical Storm Tracking
New forecast layout! Learn more

10-Day Weather Forecast

Advertisements
Track Severe Weather on mobile